aviador You're here:

LDSP Decoded Metar

SPLIT in CROATIA
Report Time2017-08-19 20:00:00
UTC Time2017-08-19 20:28:28
Flight Rules vfr VFR
WindVRB at 02 kt
Visibility9999 m
Phenomena:N/A
Clouds:N/A
Expected CloudBase > 6,800 ft AGL from Temp-Dew spread
CeilingNone
Temp26°C (ISA +11)
Dew Point09°C (34% RH)
AAT25.0°C
QNH1013 hPa
Density Alt1,512 ft
Elevation69 ft
Report Wrong Elevation
Raw Report
LDSP 192000Z VRB02KT CAVOK 26/09 Q1013 NOSIG=

Extra information for LDSP:More info

Metar Taf Metar & Taf Last 4 Metars F.Rules Stats Wind Profile Meteogram Temp Stats Airport Information Weather charts Add Link Nearby VenuesMetar ALERT Operation Metar Decoded Social comments